Portada
METAR-TAF:

METAR-TAF

Aeroports :

Christchurch, Nova Zelanda

latitud: 43-29S, longitud: 172-33E, altitud: 38 m

Observació

L'informe es va fer fa 20 minuts, a les 18:30 UTC
Vent 6 kt del Est/Nord-Est
Temperatura 14°C
Humitat 94%
Pressió 1012 hPa
Visibilitat 10 km o més

METAR: NZCH 101830Z AUTO 07006KT 9999 NCD 14/13 Q1012 NOSIG

Hora: 07:50 (18:50 UTC)

Pronòstic

L'informe es va fer fa 1 hora i 48 minuts, a les 17:02 UTC
Pronòstic vàlid del 10 a les 18 UTC al 11 a les 18 UTC
Vent 10 kt del Est
Visibilitat 10 km o més
sense núvols per sota de 1500 mi sense presència de cumulonimbus.
Evolucionant progressivament
l' 10 a les 22 UTC al 11 a les 00 UTC
Vent 10 kt del Sud
Evolucionant progressivament
l' 11 a les 01 UTC al 11 a les 03 UTC
Vent 8 kt del Est/Nord-Est
Evolucionant progressivament
l' 11 a les 10 UTC al 11 a les 12 UTC
Cel ennuvolat a una alçada de 800 ft

TAF: NZCH 101702Z 1018/1118 08010KT CAVOK BECMG 1022/1100 19010KT BECMG 1101/1103 06008KT BECMG 1110/1112 BKN008

Observacions i pronòstics meteorològics de més de 4000 aeroports (METAR i TAF).

Les estacions disponibles són els punts grocs i vermells al mapa.

Posi el ratolí al punt desitjat per veure el nom de l'estació.

Feu clic per veure les observacions i els pronòstics meteorològics.

Per canviar el mapa: feu clic els botons verds amb una creu de color negre per apropar; al botó verd amb un guió per allunyar la imatge; o en les fletxes verdes per a mapes adjacents.


METAR-TAF: